Time;durP1;ratioP1;P1;durP2;ratioP2;P2;SDS_P1;SDS_P2;PMS_P1;PMS_P2;Temp;Humidity;BMP_temperature;BMP_pressure;BME280_temperature;BME280_humidity;BME280_pressure;Samples;Min_cycle;Max_cycle;Signal;HPM_P1;HPM_P2
2023/06/26 00:00:00;;;;;;;8.00;7.13;;;;;;;18.87;100.00;93749.69;5068609;28;20017;-73
2023/06/26 00:02:25;;;;;;;8.50;7.70;;;;;;;18.87;100.00;93767.56;5069878;28;20103;-72
2023/06/26 00:04:57;;;;;;;7.85;7.15;;;;;;;18.86;100.00;93758.72;5069207;28;20012;-72
2023/06/26 00:07:22;;;;;;;7.90;6.93;;;;;;;18.78;100.00;93750.31;5061867;28;20055;-72
2023/06/26 00:09:48;;;;;;;8.75;7.85;;;;;;;18.80;100.00;93770.38;5063372;28;20040;-73
2023/06/26 00:12:13;;;;;;;8.55;7.65;;;;;;;18.87;100.00;93768.34;5069655;28;20026;-72
2023/06/26 00:14:38;;;;;;;8.23;7.53;;;;;;;18.87;100.00;93787.00;5064541;28;20029;-73
2023/06/26 00:17:04;;;;;;;8.07;7.38;;;;;;;18.85;100.00;93778.44;5058711;28;20017;-73
2023/06/26 00:19:29;;;;;;;8.13;7.15;;;;;;;18.86;100.00;93774.72;5072164;28;20051;-73
2023/06/26 00:21:55;;;;;;;9.27;7.45;;;;;;;18.82;100.00;93778.94;5068693;28;20032;-73
2023/06/26 00:24:20;;;;;;;8.25;7.53;;;;;;;18.81;100.00;93792.50;5070640;28;20035;-72
2023/06/26 00:26:47;;;;;;;8.23;7.43;;;;;;;18.76;100.00;93795.88;5071443;28;20028;-73
2023/06/26 00:29:12;;;;;;;8.82;6.72;;;;;;;18.71;100.00;93788.59;5044821;28;20032;-73
2023/06/26 00:31:41;;;;;;;7.35;6.65;;;;;;;18.67;100.00;93784.81;5052997;28;20024;-72
2023/06/26 00:34:06;;;;;;;8.32;7.53;;;;;;;18.60;100.00;93739.66;5065279;28;20033;-73
2023/06/26 00:36:32;;;;;;;7.63;7.03;;;;;;;18.58;100.00;93741.75;5070219;28;20116;-73
2023/06/26 00:38:58;;;;;;;9.65;7.47;;;;;;;18.56;100.00;93700.38;5067505;28;20028;-73
2023/06/26 00:41:23;;;;;;;7.47;6.88;;;;;;;18.51;100.00;93725.13;5067841;28;20048;-73
2023/06/26 00:43:49;;;;;;;8.07;7.40;;;;;;;18.44;100.00;93711.13;5050086;28;20023;-73
2023/06/26 00:46:15;;;;;;;7.88;7.28;;;;;;;18.41;100.00;93715.09;5066152;28;20513;-73
2023/06/26 00:48:42;;;;;;;7.78;7.28;;;;;;;18.41;100.00;93723.06;5068289;28;20024;-73
2023/06/26 00:51:08;;;;;;;7.60;7.00;;;;;;;18.42;100.00;93723.88;5068192;28;20021;-73
2023/06/26 00:53:34;;;;;;;8.25;7.55;;;;;;;18.45;100.00;93718.88;5037569;28;20031;-73
2023/06/26 00:56:00;;;;;;;7.95;7.20;;;;;;;18.47;100.00;93726.66;5069484;28;20021;-73
2023/06/26 00:58:26;;;;;;;8.15;7.55;;;;;;;18.49;100.00;93732.53;5067729;28;20016;-73
2023/06/26 01:00:52;;;;;;;8.13;7.38;;;;;;;18.48;100.00;93714.94;5069014;28;21293;-73
2023/06/26 01:03:19;;;;;;;7.72;7.00;;;;;;;18.48;100.00;93730.94;5071583;28;20048;-73
2023/06/26 01:05:45;;;;;;;7.63;7.03;;;;;;;18.46;100.00;93706.38;5075692;28;20043;-73
2023/06/26 01:08:13;;;;;;;8.27;7.68;;;;;;;18.43;100.00;93706.84;5075024;28;20031;-73
2023/06/26 01:10:39;;;;;;;8.73;6.80;;;;;;;18.39;100.00;93719.03;5075591;28;20054;-73
2023/06/26 01:13:05;;;;;;;7.35;6.75;;;;;;;18.35;100.00;93700.06;5069537;28;20135;-73
2023/06/26 01:15:30;;;;;;;8.15;7.45;;;;;;;18.30;100.00;93700.78;5069025;28;20094;-73
2023/06/26 01:18:03;;;;;;;7.95;7.35;;;;;;;18.29;100.00;93707.16;5073008;28;20032;-73
2023/06/26 01:20:35;;;;;;;8.50;7.70;;;;;;;18.23;100.00;93702.75;5046955;28;20053;-73
2023/06/26 01:23:36;;;;;;;7.78;6.97;;;;;;;18.20;100.00;93684.59;5072255;28;20521;-73
2023/06/26 01:26:07;;;;;;;10.45;7.78;;;;;;;18.19;100.00;93675.00;5073569;28;20017;-73
2023/06/26 01:28:39;;;;;;;7.70;7.10;;;;;;;18.16;100.00;93680.78;5076686;28;20024;-73
2023/06/26 01:31:05;;;;;;;8.40;7.60;;;;;;;18.13;100.00;93662.63;5066925;28;20027;-73
2023/06/26 01:33:32;;;;;;;8.10;7.35;;;;;;;18.14;100.00;93666.91;5071178;28;20504;-73
2023/06/26 01:35:57;;;;;;;10.00;7.93;;;;;;;18.06;100.00;93657.44;5072696;28;20020;-72
2023/06/26 01:38:23;;;;;;;7.40;6.78;;;;;;;18.08;100.00;93670.53;5069015;28;20480;-73
2023/06/26 01:40:49;;;;;;;7.70;7.10;;;;;;;18.09;100.00;93666.84;5071404;28;20017;-72
2023/06/26 01:43:43;;;;;;;7.63;6.85;;;;;;;18.09;100.00;93638.34;5071562;28;20509;-73
2023/06/26 01:46:19;;;;;;;8.27;7.60;;;;;;;18.09;100.00;93637.53;5069308;28;20456;-73
2023/06/26 01:48:53;;;;;;;8.23;7.38;;;;;;;18.09;100.00;93649.00;5067493;28;20095;-73
2023/06/26 01:51:22;;;;;;;8.48;7.68;;;;;;;18.16;100.00;93664.81;5068162;28;20024;-73
2023/06/26 01:53:53;;;;;;;8.73;7.97;;;;;;;18.11;100.00;93654.88;5068359;28;20489;-73
2023/06/26 01:56:21;;;;;;;7.97;7.28;;;;;;;18.10;100.00;93660.47;5062910;28;20052;-73
2023/06/26 01:58:49;;;;;;;10.23;7.35;;;;;;;18.07;100.00;93661.72;5074953;28;20051;-73
2023/06/26 02:01:14;;;;;;;7.78;7.05;;;;;;;18.01;100.00;93655.50;5067126;28;20012;-74
2023/06/26 02:03:40;;;;;;;7.63;7.03;;;;;;;17.98;100.00;93658.59;5047446;28;20027;-73
2023/06/26 02:06:05;;;;;;;7.03;6.50;;;;;;;17.97;100.00;93664.97;5069752;28;20052;-73
2023/06/26 02:08:31;;;;;;;7.82;7.32;;;;;;;17.98;100.00;93660.47;5056183;28;20044;-73
2023/06/26 02:10:56;;;;;;;8.63;7.82;;;;;;;17.98;100.00;93663.94;5044136;28;20021;-73
2023/06/26 02:13:21;;;;;;;7.85;7.15;;;;;;;17.95;100.00;93669.75;5052095;28;20025;-73
2023/06/26 02:15:47;;;;;;;8.57;7.53;;;;;;;17.96;100.00;93670.56;5070718;28;20020;-73
2023/06/26 02:18:12;;;;;;;8.18;7.35;;;;;;;17.96;100.00;93667.91;5072710;28;20091;-73
2023/06/26 02:20:39;;;;;;;8.35;7.55;;;;;;;17.93;100.00;93652.41;5074395;28;20049;-73
2023/06/26 02:23:04;;;;;;;8.05;7.35;;;;;;;17.88;100.00;93661.88;5068492;28;20021;-73
2023/06/26 02:25:30;;;;;;;8.25;7.55;;;;;;;17.84;100.00;93663.41;5074933;28;20550;-72
2023/06/26 02:27:55;;;;;;;8.05;7.35;;;;;;;17.77;100.00;93670.72;5069921;28;20107;-73
2023/06/26 02:30:20;;;;;;;8.15;7.43;;;;;;;17.69;100.00;93660.47;5050713;28;20148;-73
2023/06/26 02:32:46;;;;;;;11.40;7.88;;;;;;;17.66;100.00;93659.09;5073292;28;20500;-73
2023/06/26 02:35:11;;;;;;;8.20;7.50;;;;;;;17.67;100.00;93650.06;5074863;28;20039;-73
2023/06/26 02:37:37;;;;;;;8.02;7.32;;;;;;;17.64;100.00;93626.59;5070634;28;20023;-73
2023/06/26 02:40:03;;;;;;;8.00;7.40;;;;;;;17.65;100.00;93625.53;5073626;28;20079;-73
2023/06/26 02:42:29;;;;;;;8.60;7.85;;;;;;;17.67;100.00;93631.44;5069686;28;20029;-73
2023/06/26 02:44:54;;;;;;;11.10;7.20;;;;;;;17.67;100.00;93633.25;5070029;28;20039;-72
2023/06/26 02:47:20;;;;;;;8.55;7.63;;;;;;;17.66;100.00;93631.66;5068353;28;20020;-73
2023/06/26 02:49:45;;;;;;;8.38;7.68;;;;;;;17.61;100.00;93589.81;5070296;28;20622;-73
2023/06/26 02:52:11;;;;;;;8.05;7.45;;;;;;;17.58;100.00;93584.97;5070558;28;20432;-73
2023/06/26 02:54:36;;;;;;;8.63;7.82;;;;;;;17.55;100.00;93553.50;5071610;28;20039;-73
2023/06/26 02:57:04;;;;;;;8.50;7.90;;;;;;;17.52;100.00;93546.00;5069951;28;20536;-72
2023/06/26 02:59:30;;;;;;;8.20;7.55;;;;;;;17.51;100.00;93531.91;5063784;28;20024;-73
2023/06/26 03:01:55;;;;;;;7.95;7.38;;;;;;;17.51;100.00;93499.97;5068686;28;20058;-73
2023/06/26 03:04:21;;;;;;;7.63;7.13;;;;;;;17.50;100.00;93497.56;5074251;28;20032;-73
2023/06/26 03:06:47;;;;;;;8.30;7.70;;;;;;;17.45;100.00;93480.47;5070390;28;20151;-72
2023/06/26 03:09:12;;;;;;;8.10;7.40;;;;;;;17.41;100.00;93492.63;5077113;28;20079;-72
2023/06/26 03:11:38;;;;;;;8.40;7.60;;;;;;;17.38;100.00;93453.22;5058620;28;20022;-72
2023/06/26 03:14:03;;;;;;;8.25;7.65;;;;;;;17.37;100.00;93446.28;5064720;28;20025;-73
2023/06/26 03:16:28;;;;;;;8.27;7.57;;;;;;;17.36;100.00;93439.34;5065165;28;20147;-72
2023/06/26 03:18:54;;;;;;;8.15;7.35;;;;;;;17.42;100.00;93454.34;5066003;28;20089;-72
2023/06/26 03:21:22;;;;;;;8.77;7.93;;;;;;;17.42;100.00;93470.31;5069213;28;20023;-72
2023/06/26 03:23:47;;;;;;;7.88;7.28;;;;;;;17.36;100.00;93476.59;5053447;28;20025;-72
2023/06/26 03:26:14;;;;;;;9.60;7.45;;;;;;;17.41;100.00;93468.69;5065859;28;20031;-73
2023/06/26 03:28:40;;;;;;;9.15;8.45;;;;;;;17.46;100.00;93458.13;5070080;28;20107;-72
2023/06/26 03:31:06;;;;;;;8.57;7.60;;;;;;;17.41;100.00;93438.63;5051895;28;20035;-73
2023/06/26 03:33:31;;;;;;;8.07;7.45;;;;;;;17.41;100.00;93447.41;5065443;28;20021;-72
2023/06/26 03:35:57;;;;;;;8.35;7.57;;;;;;;17.36;100.00;93442.00;5079911;28;20021;-72
2023/06/26 03:38:23;;;;;;;7.95;7.35;;;;;;;17.38;100.00;93445.25;5067589;28;20075;-73
2023/06/26 03:40:52;;;;;;;8.25;7.65;;;;;;;17.39;100.00;93462.00;5071156;28;20588;-72
2023/06/26 03:43:17;;;;;;;8.20;7.50;;;;;;;17.35;100.00;93474.94;5058962;28;20032;-72
2023/06/26 03:45:43;;;;;;;8.38;7.78;;;;;;;17.31;100.00;93477.28;5076296;28;20469;-72
2023/06/26 03:48:08;;;;;;;10.52;9.52;;;;;;;17.29;100.00;93455.44;5057938;28;20515;-73
2023/06/26 03:50:34;;;;;;;9.52;8.73;;;;;;;17.30;100.00;93456.25;5074547;28;20438;-72
2023/06/26 03:52:59;;;;;;;8.80;7.85;;;;;;;17.30;100.00;93461.56;5069148;28;20448;-72
2023/06/26 03:55:24;;;;;;;14.45;12.95;;;;;;;17.31;100.00;93463.19;5055357;28;20017;-73
2023/06/26 03:57:50;;;;;;;12.55;11.35;;;;;;;17.29;100.00;93470.59;5070741;28;20051;-72
2023/06/26 04:00:16;;;;;;;8.98;8.27;;;;;;;17.25;100.00;93464.13;5075085;28;20028;-71
2023/06/26 04:02:41;;;;;;;11.13;9.05;;;;;;;17.26;100.00;93461.25;5072135;28;20496;-71
2023/06/26 04:05:07;;;;;;;8.77;8.07;;;;;;;17.29;100.00;93467.94;5074635;28;20020;-72
2023/06/26 04:07:32;;;;;;;12.38;11.30;;;;;;;17.28;100.00;93469.78;5074047;28;20031;-72
2023/06/26 04:09:58;;;;;;;15.93;12.93;;;;;;;17.29;100.00;93475.91;5050391;28;20096;-72
2023/06/26 04:12:23;;;;;;;12.88;11.63;;;;;;;17.29;100.00;93473.25;5071866;28;20082;-72
2023/06/26 04:14:49;;;;;;;13.80;9.85;;;;;;;17.26;100.00;93439.97;5067495;28;20481;-72
2023/06/26 04:17:14;;;;;;;12.05;7.88;;;;;;;17.26;100.00;93441.81;5074720;28;20369;-73
2023/06/26 04:19:40;;;;;;;12.68;8.10;;;;;;;17.25;100.00;93448.19;5071232;28;20370;-72
2023/06/26 04:22:05;;;;;;;8.77;8.07;;;;;;;17.26;100.00;93449.78;5072052;28;20048;-72
2023/06/26 04:24:31;;;;;;;8.30;7.53;;;;;;;17.28;100.00;93453.84;5073431;28;20017;-72
2023/06/26 04:26:56;;;;;;;9.20;8.25;;;;;;;17.29;100.00;93428.03;5073345;28;20104;-72
2023/06/26 04:29:25;;;;;;;8.55;7.53;;;;;;;17.29;100.00;93406.78;5056778;28;20025;-73
2023/06/26 04:31:51;;;;;;;8.10;7.28;;;;;;;17.30;100.00;93389.78;5072716;28;20472;-72
2023/06/26 04:34:16;;;;;;;10.85;7.50;;;;;;;17.27;100.00;93376.97;5059527;28;20058;-72
2023/06/26 04:36:47;;;;;;;8.85;8.05;;;;;;;17.26;100.00;93365.53;5078203;28;20481;-72
2023/06/26 04:39:14;;;;;;;8.43;7.53;;;;;;;17.28;100.00;93371.41;5076219;28;20024;-73
2023/06/26 04:41:40;;;;;;;8.35;7.53;;;;;;;17.32;100.00;93385.00;5076494;28;20028;-72
2023/06/26 04:44:05;;;;;;;8.40;7.70;;;;;;;17.35;100.00;93371.22;5075483;28;20070;-72
2023/06/26 04:46:31;;;;;;;8.20;7.50;;;;;;;17.36;100.00;93369.41;5076176;28;20016;-72
2023/06/26 04:48:57;;;;;;;8.40;7.60;;;;;;;17.37;100.00;93377.16;5080428;28;20074;-72
2023/06/26 04:51:26;;;;;;;8.25;7.65;;;;;;;17.39;100.00;93363.59;5073639;28;20032;-72
2023/06/26 04:53:52;;;;;;;8.85;7.68;;;;;;;17.44;100.00;93350.38;5073884;28;20031;-72
2023/06/26 04:56:17;;;;;;;9.07;8.20;;;;;;;17.46;100.00;93337.63;5083960;28;20017;-73
2023/06/26 04:58:43;;;;;;;11.18;7.70;;;;;;;17.49;100.00;93352.31;5074677;28;20016;-72
2023/06/26 05:01:08;;;;;;;8.50;7.80;;;;;;;17.52;100.00;93370.44;5076706;28;20017;-72
2023/06/26 05:03:34;;;;;;;7.93;7.22;;;;;;;17.53;100.00;93378.19;5070211;28;20028;-72
2023/06/26 05:05:59;;;;;;;12.02;7.95;;;;;;;17.64;100.00;93375.69;5066149;28;20029;-72
2023/06/26 05:08:28;;;;;;;8.15;7.45;;;;;;;17.70;100.00;93367.53;5077210;28;20013;-73
2023/06/26 05:10:57;;;;;;;8.52;7.72;;;;;;;17.83;100.00;93368.25;5080878;28;20044;-72
2023/06/26 05:13:23;;;;;;;8.63;7.82;;;;;;;17.94;100.00;93363.88;5055929;28;20024;-73
2023/06/26 05:15:48;;;;;;;8.45;7.65;;;;;;;18.08;100.00;93351.84;5073825;28;20086;-73
2023/06/26 05:18:14;;;;;;;8.70;7.97;;;;;;;18.20;100.00;93330.44;5084103;28;20574;-72
2023/06/26 05:20:40;;;;;;;10.30;8.30;;;;;;;18.32;100.00;93355.09;5073989;28;20045;-73
2023/06/26 05:23:05;;;;;;;8.60;7.78;;;;;;;18.47;100.00;93394.44;5052318;28;20108;-72
2023/06/26 05:25:32;;;;;;;7.85;7.07;;;;;;;18.57;100.00;93415.06;5073287;28;20073;-72
2023/06/26 05:27:58;;;;;;;7.95;7.22;;;;;;;18.67;100.00;93433.03;5070540;28;20021;-72
2023/06/26 05:30:25;;;;;;;8.95;7.70;;;;;;;18.80;100.00;93497.69;5054852;28;20028;-72
2023/06/26 05:32:52;;;;;;;9.00;7.75;;;;;;;18.88;100.00;93553.25;5073563;28;20076;-72
2023/06/26 05:35:20;;;;;;;8.75;7.40;;;;;;;18.94;100.00;93568.25;5073559;28;20033;-72
2023/06/26 05:37:46;;;;;;;7.88;7.28;;;;;;;19.02;100.00;93591.88;5071883;28;20048;-72
2023/06/26 05:40:13;;;;;;;8.15;7.45;;;;;;;19.14;100.00;93626.44;5060207;28;20031;-72
2023/06/26 05:42:38;;;;;;;7.55;6.85;;;;;;;19.19;100.00;93660.34;5052458;28;20033;-72
2023/06/26 05:45:04;;;;;;;8.20;7.50;;;;;;;19.23;100.00;93684.66;5073538;28;20020;-72
2023/06/26 05:47:29;;;;;;;8.77;7.10;;;;;;;19.30;100.00;93698.63;5053964;28;20488;-72
2023/06/26 05:49:55;;;;;;;7.55;6.85;;;;;;;19.33;100.00;93690.13;5071861;28;20094;-72
2023/06/26 05:52:21;;;;;;;11.52;7.55;;;;;;;19.41;100.00;93678.22;5059022;28;20103;-72
2023/06/26 05:54:46;;;;;;;8.10;7.10;;;;;;;19.49;100.00;93682.34;5050338;28;20401;-73
2023/06/26 05:57:13;;;;;;;7.35;6.65;;;;;;;19.60;100.00;93682.22;5064351;28;20047;-72
2023/06/26 05:59:41;;;;;;;8.48;7.38;;;;;;;19.72;100.00;93700.00;5077897;28;20469;-71
2023/06/26 06:02:06;;;;;;;8.10;7.38;;;;;;;19.88;100.00;93711.66;5057721;28;20035;-73
2023/06/26 06:04:31;;;;;;;7.70;7.00;;;;;;;19.98;100.00;93716.34;5071375;28;20028;-71
2023/06/26 06:06:57;;;;;;;8.98;7.72;;;;;;;20.04;100.00;93700.16;5076043;28;20029;-71
2023/06/26 06:09:22;;;;;;;7.82;7.00;;;;;;;20.11;100.00;93717.84;5071869;28;20106;-72
2023/06/26 06:11:47;;;;;;;8.20;7.40;;;;;;;20.15;100.00;93718.94;5061132;28;20033;-71
2023/06/26 06:14:13;;;;;;;7.22;6.72;;;;;;;20.30;100.00;93719.13;5065860;28;20111;-70
2023/06/26 06:16:38;;;;;;;7.32;6.75;;;;;;;20.48;100.00;93727.84;5074709;28;20027;-71
2023/06/26 06:19:06;;;;;;;7.63;6.75;;;;;;;20.62;100.00;93746.97;5071819;28;20049;-71
2023/06/26 06:21:32;;;;;;;7.93;6.47;;;;;;;20.70;100.00;93757.19;5076106;28;20040;-71
2023/06/26 06:23:57;;;;;;;7.10;6.60;;;;;;;20.75;100.00;93769.81;5072522;28;20463;-72
2023/06/26 06:26:23;;;;;;;8.00;7.20;;;;;;;20.97;100.00;93785.81;5075644;28;20461;-72
2023/06/26 06:28:48;;;;;;;7.72;7.13;;;;;;;21.14;100.00;93833.84;5074621;28;20114;-72
2023/06/26 06:31:13;;;;;;;7.45;6.90;;;;;;;21.33;100.00;93862.91;5068960;28;20024;-72
2023/06/26 06:33:39;;;;;;;7.45;6.85;;;;;;;21.49;100.00;93882.59;5075804;28;20028;-71
2023/06/26 06:36:04;;;;;;;9.75;6.85;;;;;;;21.67;100.00;93916.22;5076990;28;20062;-72
2023/06/26 06:38:30;;;;;;;6.70;6.25;;;;;;;21.93;100.00;93918.31;5049759;28;20041;-71
2023/06/26 06:40:55;;;;;;;6.60;6.10;;;;;;;22.22;100.00;93947.44;5072725;28;20031;-71
2023/06/26 06:43:20;;;;;;;7.70;6.35;;;;;;;22.54;100.00;93950.09;5070836;28;20035;-72
2023/06/26 06:45:46;;;;;;;6.47;5.88;;;;;;;22.80;100.00;93974.34;5074862;28;20050;-72
2023/06/26 06:48:11;;;;;;;10.00;6.65;;;;;;;22.94;100.00;93969.31;5073347;28;20025;-72
2023/06/26 06:50:37;;;;;;;6.57;6.07;;;;;;;23.25;100.00;93957.88;5071321;28;20020;-71
2023/06/26 06:53:02;;;;;;;7.20;6.60;;;;;;;23.45;100.00;93970.59;5068984;28;20082;-72
2023/06/26 06:55:28;;;;;;;6.75;6.25;;;;;;;23.65;100.00;93996.69;5076159;28;20099;-71
2023/06/26 06:57:53;;;;;;;8.85;6.20;;;;;;;23.99;100.00;93988.13;5055522;28;20051;-72
2023/06/26 07:00:19;;;;;;;7.18;6.57;;;;;;;24.21;100.00;93984.41;5069180;28;20460;-71
2023/06/26 07:02:45;;;;;;;7.25;6.28;;;;;;;24.34;100.00;94087.09;5074433;28;20044;-70
2023/06/26 07:05:11;;;;;;;8.00;6.65;;;;;;;24.57;100.00;94089.25;5066415;28;20019;-71
2023/06/26 07:07:37;;;;;;;8.38;6.07;;;;;;;24.72;100.00;94066.91;5069610;28;20088;-70
2023/06/26 07:10:08;;;;;;;7.85;6.78;;;;;;;24.77;100.00;94097.63;5066118;28;20017;-70
2023/06/26 07:12:34;;;;;;;7.30;5.78;;;;;;;25.06;100.00;94094.34;5071475;28;20040;-71
2023/06/26 07:15:02;;;;;;;9.18;6.40;;;;;;;25.32;100.00;94081.63;5052704;28;20460;-71
2023/06/26 07:17:28;;;;;;;6.88;6.25;;;;;;;25.47;100.00;94140.03;5074611;28;20020;-71
2023/06/26 07:19:53;;;;;;;9.13;5.80;;;;;;;25.65;100.00;94118.97;5070876;28;20051;-71
2023/06/26 07:22:20;;;;;;;6.10;5.60;;;;;;;25.93;100.00;94109.38;5071536;28;20169;-70
2023/06/26 07:24:47;;;;;;;6.60;6.10;;;;;;;26.15;100.00;94100.09;5070575;28;20256;-70
2023/06/26 07:27:17;;;;;;;6.55;6.05;;;;;;;26.38;100.00;94159.88;5080318;28;20020;-71
2023/06/26 07:29:42;;;;;;;7.85;5.72;;;;;;;26.27;100.00;94146.47;5049301;28;20121;-70
2023/06/26 07:32:08;;;;;;;6.30;5.60;;;;;;;26.44;100.00;94193.84;5058934;28;20099;-71
2023/06/26 07:34:33;;;;;;;7.80;6.35;;;;;;;26.57;100.00;94187.81;5075311;28;20519;-70
2023/06/26 07:36:59;;;;;;;7.20;6.45;;;;;;;26.82;100.00;94215.69;5065882;28;20013;-70
2023/06/26 07:39:25;;;;;;;7.93;6.38;;;;;;;27.09;100.00;94214.47;5063013;28;20031;-71
2023/06/26 07:41:50;;;;;;;6.20;5.63;;;;;;;27.37;100.00;94240.94;5067308;28;20039;-71
2023/06/26 07:44:15;;;;;;;6.47;5.90;;;;;;;27.64;100.00;94237.75;5074650;28;20032;-71
2023/06/26 07:46:41;;;;;;;6.05;5.50;;;;;;;27.82;100.00;94262.47;5050946;28;20024;-71
2023/06/26 07:49:06;;;;;;;6.38;5.90;;;;;;;28.03;100.00;94298.19;5068256;28;20028;-70
2023/06/26 07:51:32;;;;;;;8.38;5.72;;;;;;;28.21;100.00;94315.63;5044349;28;20027;-71
2023/06/26 07:53:57;;;;;;;6.80;5.88;;;;;;;28.08;100.00;94324.38;5053742;28;20029;-71
2023/06/26 07:56:23;;;;;;;5.97;5.57;;;;;;;28.18;100.00;94232.31;5055185;28;20029;-71
2023/06/26 07:58:48;;;;;;;6.05;5.68;;;;;;;28.15;100.00;94241.84;5071277;28;20068;-71
2023/06/26 08:01:13;;;;;;;6.40;5.78;;;;;;;28.28;100.00;94297.13;5070400;28;20021;-71
2023/06/26 08:03:40;;;;;;;6.88;6.05;;;;;;;28.48;100.00;94306.13;5072367;28;20566;-71
2023/06/26 08:06:06;;;;;;;6.15;5.65;;;;;;;28.57;100.00;94288.13;5071803;28;20032;-71
2023/06/26 08:08:33;;;;;;;6.45;5.95;;;;;;;29.05;100.00;94299.97;5063381;28;20025;-71
2023/06/26 08:10:59;;;;;;;6.75;6.20;;;;;;;29.17;100.00;94376.19;5070517;28;20038;-71
2023/06/26 08:13:25;;;;;;;7.70;5.70;;;;;;;29.16;100.00;94385.41;5070194;28;20031;-71
2023/06/26 08:15:50;;;;;;;8.45;6.30;;;;;;;29.16;100.00;94417.94;5070591;28;20031;-71
2023/06/26 08:18:15;;;;;;;6.13;5.63;;;;;;;29.10;100.00;94415.56;5072667;28;20050;-71
2023/06/26 08:20:41;;;;;;;6.15;5.65;;;;;;;29.19;100.00;94394.88;5068698;28;20424;-71
2023/06/26 08:23:07;;;;;;;6.30;5.65;;;;;;;29.42;100.00;94425.72;5066358;28;20422;-71
2023/06/26 08:25:32;;;;;;;6.53;6.13;;;;;;;29.41;100.00;94394.31;5069688;28;20378;-71
2023/06/26 08:27:58;;;;;;;7.07;6.47;;;;;;;29.52;100.00;94397.66;5066905;28;20043;-71
2023/06/26 08:30:27;;;;;;;5.57;5.10;;;;;;;29.56;100.00;94389.75;5067484;28;20045;-71
2023/06/26 08:32:53;;;;;;;6.05;5.55;;;;;;;29.73;100.00;94390.03;5070662;28;20035;-71
2023/06/26 08:35:19;;;;;;;6.05;5.65;;;;;;;29.78;100.00;94424.38;5069862;28;20028;-71
2023/06/26 08:37:44;;;;;;;6.10;5.60;;;;;;;29.57;100.00;94410.34;5068077;28;20104;-71
2023/06/26 08:40:10;;;;;;;6.65;6.05;;;;;;;29.55;100.00;94412.56;5070003;28;20209;-71
2023/06/26 08:42:35;;;;;;;6.43;5.93;;;;;;;30.09;100.00;94404.94;5073006;28;20043;-71
2023/06/26 08:45:01;;;;;;;6.20;5.70;;;;;;;29.80;100.00;94369.88;5070882;28;20590;-71
2023/06/26 08:47:27;;;;;;;6.75;6.05;;;;;;;29.78;100.00;94386.41;5072237;28;20032;-71
2023/06/26 08:50:09;;;;;;;7.07;6.43;;;;;;;29.82;100.00;94367.66;5068727;28;20028;-72
2023/06/26 08:52:40;;;;;;;5.93;5.38;;;;;;;30.33;100.00;94412.13;5065188;28;20481;-72
2023/06/26 08:55:10;;;;;;;6.65;5.75;;;;;;;30.35;100.00;94373.81;5067621;28;20071;-71
2023/06/26 08:57:36;;;;;;;5.68;5.28;;;;;;;30.42;100.00;94433.97;5068663;28;20378;-71
2023/06/26 09:00:03;;;;;;;6.13;5.63;;;;;;;30.54;100.00;94409.03;5066258;28;20220;-71
2023/06/26 09:02:29;;;;;;;6.32;5.82;;;;;;;30.78;100.00;94474.03;5073446;28;20090;-71
2023/06/26 09:04:54;;;;;;;5.45;5.05;;;;;;;30.91;100.00;94512.41;5051392;28;20021;-70
2023/06/26 09:07:20;;;;;;;6.47;5.10;;;;;;;30.97;100.00;94440.53;5049096;28;20047;-71
2023/06/26 09:09:45;;;;;;;5.05;4.70;;;;;;;30.77;100.00;94434.41;5067785;28;20056;-71
2023/06/26 09:12:11;;;;;;;5.43;5.03;;;;;;;31.01;100.00;94455.13;5055879;28;20060;-71
2023/06/26 09:14:38;;;;;;;4.97;4.57;;;;;;;30.91;100.00;94441.75;5069659;28;20056;-69
2023/06/26 09:17:03;;;;;;;4.60;4.20;;;;;;;31.25;100.00;94484.84;5078319;28;20055;-68
2023/06/26 09:19:29;;;;;;;5.15;4.65;;;;;;;31.30;100.00;94525.50;5071097;28;20076;-69
2023/06/26 09:21:55;;;;;;;6.28;4.60;;;;;;;31.58;100.00;94555.38;5071218;28;20574;-68
2023/06/26 09:24:22;;;;;;;4.88;4.47;;;;;;;32.03;100.00;94580.34;5071452;28;20032;-69
2023/06/26 09:26:49;;;;;;;5.00;4.60;;;;;;;31.82;100.00;94600.63;5071269;28;20497;-68
2023/06/26 09:29:16;;;;;;;4.90;4.50;;;;;;;32.15;100.00;94558.81;5070239;28;20516;-68
2023/06/26 09:31:43;;;;;;;8.00;4.50;;;;;;;32.36;100.00;94582.88;5054409;28;20039;-69
2023/06/26 09:34:10;;;;;;;4.80;4.35;;;;;;;32.47;100.00;94597.88;5074237;28;20452;-69
2023/06/26 09:36:36;;;;;;;4.45;4.15;;;;;;;32.37;100.00;94582.59;5071495;28;20044;-68
2023/06/26 09:39:14;;;;;;;4.75;4.35;;;;;;;32.62;100.00;94604.88;5074264;28;20024;-68
2023/06/26 09:41:43;;;;;;;5.55;4.30;;;;;;;32.56;100.00;94609.63;5073320;28;20487;-68
2023/06/26 09:44:13;;;;;;;4.90;4.50;;;;;;;32.49;100.00;94627.50;5074788;28;20415;-68
2023/06/26 09:46:38;;;;;;;5.00;4.60;;;;;;;32.63;100.00;94603.75;5049796;28;20021;-69
2023/06/26 09:49:05;;;;;;;5.18;4.78;;;;;;;32.75;100.00;94559.59;5059644;28;20028;-71
2023/06/26 09:51:36;;;;;;;6.72;4.80;;;;;;;32.60;100.00;94598.94;5072059;28;20035;-71
2023/06/26 09:54:02;;;;;;;4.28;3.95;;;;;;;32.48;100.00;94585.06;5072520;28;20033;-71
2023/06/26 09:56:29;;;;;;;8.60;5.03;;;;;;;32.74;100.00;94544.38;5073357;28;20108;-69
2023/06/26 09:59:01;;;;;;;4.78;4.47;;;;;;;32.80;100.00;94602.28;5074502;28;20035;-71
2023/06/26 10:01:27;;;;;;;4.88;4.43;;;;;;;33.08;100.00;94578.44;5067004;28;20033;-69
2023/06/26 10:03:54;;;;;;;4.68;4.32;;;;;;;33.05;100.00;94646.38;5077493;28;20275;-69
2023/06/26 10:06:33;;;;;;;5.00;4.60;;;;;;;32.81;100.00;94582.88;5070386;28;20111;-68
2023/06/26 10:09:00;;;;;;;4.75;4.40;;;;;;;33.06;100.00;94629.72;5074077;28;20488;-71
2023/06/26 10:11:41;;;;;;;4.97;4.68;;;;;;;32.96;100.00;94621.78;5072947;28;20028;-74
2023/06/26 10:14:08;;;;;;;6.25;4.60;;;;;;;33.00;100.00;94615.41;5075827;28;20025;-72
2023/06/26 10:16:37;;;;;;;6.05;4.53;;;;;;;32.90;100.00;94599.31;5073258;28;20032;-67
2023/06/26 10:19:06;;;;;;;4.38;3.90;;;;;;;32.97;100.00;94612.50;5056139;28;20117;-68
2023/06/26 10:21:34;;;;;;;5.05;4.63;;;;;;;33.21;100.00;94619.53;5075548;28;20024;-68
2023/06/26 10:24:02;;;;;;;4.85;4.45;;;;;;;33.24;100.00;94616.16;5069929;28;20016;-68
2023/06/26 10:26:28;;;;;;;6.63;4.60;;;;;;;33.44;100.00;94617.59;5074254;28;20428;-68
2023/06/26 10:28:56;;;;;;;5.20;4.80;;;;;;;33.34;100.00;94643.16;5060029;28;20029;-69
2023/06/26 10:31:26;;;;;;;4.85;4.47;;;;;;;33.09;100.00;94637.28;5077855;28;20448;-71
2023/06/26 10:33:52;;;;;;;5.82;4.50;;;;;;;33.23;100.00;94609.91;5070722;28;20115;-72
2023/06/26 10:36:26;;;;;;;4.80;4.45;;;;;;;33.08;100.00;94597.50;5055952;28;20032;-72
2023/06/26 10:38:55;;;;;;;5.35;4.95;;;;;;;33.01;100.00;94610.75;5076352;28;20096;-71
2023/06/26 10:41:23;;;;;;;4.97;4.47;;;;;;;33.07;100.00;94617.69;5067778;28;20449;-72
2023/06/26 10:44:08;;;;;;;5.07;4.70;;;;;;;32.96;100.00;94622.63;5065433;28;20028;-71
2023/06/26 10:46:58;;;;;;;6.07;4.97;;;;;;;33.24;100.00;94567.91;5072502;28;20571;-72
2023/06/26 10:49:30;;;;;;;5.00;4.50;;;;;;;33.42;100.00;94554.34;5062882;28;20063;-71
2023/06/26 10:51:58;;;;;;;4.63;4.32;;;;;;;33.74;100.00;94573.38;5071554;28;20571;-71
2023/06/26 10:54:28;;;;;;;6.90;4.70;;;;;;;33.66;100.00;94567.56;5078267;28;20043;-71
2023/06/26 10:56:58;;;;;;;5.30;4.80;;;;;;;33.37;100.00;94541.63;5076383;28;20052;-75
2023/06/26 10:59:26;;;;;;;5.10;4.70;;;;;;;33.08;100.00;94540.25;5070398;28;20036;-71
2023/06/26 11:01:59;;;;;;;5.32;4.93;;;;;;;33.28;100.00;94527.19;5067812;28;20057;-72
2023/06/26 11:04:46;;;;;;;6.97;4.97;;;;;;;33.21;100.00;94554.91;5071237;28;20050;-72
2023/06/26 11:07:20;;;;;;;5.53;5.13;;;;;;;32.71;100.00;94534.09;5077377;28;20028;-72
2023/06/26 11:10:05;;;;;;;5.65;5.13;;;;;;;32.59;100.00;94537.41;5072334;28;20470;-71
2023/06/26 11:12:38;;;;;;;5.55;5.15;;;;;;;32.82;100.00;94485.59;5056311;28;20024;-72
2023/06/26 11:15:11;;;;;;;6.68;6.07;;;;;;;33.24;100.00;94528.91;5073150;28;20439;-72
2023/06/26 11:17:37;;;;;;;5.28;4.72;;;;;;;33.41;100.00;94534.44;5073956;28;20107;-72
2023/06/26 11:20:07;;;;;;;5.53;5.13;;;;;;;33.92;100.00;94568.75;5071606;28;20104;-73
2023/06/26 11:22:35;;;;;;;5.07;4.68;;;;;;;33.82;100.00;94550.75;5076873;28;20397;-73